sensor_id;sensor_type;location;lat;lon;timestamp;P1;durP1;ratioP1;P2;durP2;ratioP2
33138;SDS011;19501;50.948;5.316;2024-02-28T00:02:00;68.13;;;28.92;;
33138;SDS011;19501;50.948;5.316;2024-02-28T00:04:26;75.35;;;31.95;;
33138;SDS011;19501;50.948;5.316;2024-02-28T00:06:54;82.85;;;32.05;;
33138;SDS011;19501;50.948;5.316;2024-02-28T00:09:19;75.75;;;33.75;;
33138;SDS011;19501;50.948;5.316;2024-02-28T00:11:45;79.43;;;33.65;;
33138;SDS011;19501;50.948;5.316;2024-02-28T00:14:12;79.50;;;33.70;;
33138;SDS011;19501;50.948;5.316;2024-02-28T00:16:42;87.07;;;34.33;;
33138;SDS011;19501;50.948;5.316;2024-02-28T00:19:08;76.25;;;32.63;;
33138;SDS011;19501;50.948;5.316;2024-02-28T00:21:34;72.53;;;31.25;;
33138;SDS011;19501;50.948;5.316;2024-02-28T00:23:59;87.25;;;34.58;;
33138;SDS011;19501;50.948;5.316;2024-02-28T00:26:25;83.55;;;33.13;;
33138;SDS011;19501;50.948;5.316;2024-02-28T00:28:51;72.90;;;32.10;;
33138;SDS011;19501;50.948;5.316;2024-02-28T00:31:16;81.90;;;33.30;;
33138;SDS011;19501;50.948;5.316;2024-02-28T00:33:42;80.13;;;32.28;;
33138;SDS011;19501;50.948;5.316;2024-02-28T00:36:08;81.93;;;34.20;;
33138;SDS011;19501;50.948;5.316;2024-02-28T00:38:33;76.70;;;33.45;;
33138;SDS011;19501;50.948;5.316;2024-02-28T00:40:59;87.72;;;36.90;;
33138;SDS011;19501;50.948;5.316;2024-02-28T00:43:24;83.60;;;36.20;;
33138;SDS011;19501;50.948;5.316;2024-02-28T00:45:50;83.18;;;34.40;;
33138;SDS011;19501;50.948;5.316;2024-02-28T00:48:16;81.50;;;34.75;;
33138;SDS011;19501;50.948;5.316;2024-02-28T00:50:41;84.28;;;33.17;;
33138;SDS011;19501;50.948;5.316;2024-02-28T00:53:09;81.57;;;34.33;;
33138;SDS011;19501;50.948;5.316;2024-02-28T00:55:35;81.03;;;34.75;;
33138;SDS011;19501;50.948;5.316;2024-02-28T00:58:01;83.88;;;35.70;;
33138;SDS011;19501;50.948;5.316;2024-02-28T01:00:26;80.88;;;34.70;;
33138;SDS011;19501;50.948;5.316;2024-02-28T01:02:52;82.40;;;34.03;;
33138;SDS011;19501;50.948;5.316;2024-02-28T01:05:17;85.30;;;35.88;;
33138;SDS011;19501;50.948;5.316;2024-02-28T01:07:43;85.75;;;35.55;;
33138;SDS011;19501;50.948;5.316;2024-02-28T01:10:09;84.28;;;35.28;;
33138;SDS011;19501;50.948;5.316;2024-02-28T01:12:35;85.55;;;33.45;;
33138;SDS011;19501;50.948;5.316;2024-02-28T01:15:00;79.32;;;33.60;;
33138;SDS011;19501;50.948;5.316;2024-02-28T01:17:26;80.18;;;34.72;;
33138;SDS011;19501;50.948;5.316;2024-02-28T01:19:52;83.70;;;33.92;;
33138;SDS011;19501;50.948;5.316;2024-02-28T01:22:17;77.95;;;33.13;;
33138;SDS011;19501;50.948;5.316;2024-02-28T01:24:43;80.35;;;34.15;;
33138;SDS011;19501;50.948;5.316;2024-02-28T01:27:09;80.97;;;34.08;;
33138;SDS011;19501;50.948;5.316;2024-02-28T01:29:34;79.90;;;33.63;;
33138;SDS011;19501;50.948;5.316;2024-02-28T01:32:00;74.78;;;32.45;;
33138;SDS011;19501;50.948;5.316;2024-02-28T01:34:26;82.07;;;33.88;;
33138;SDS011;19501;50.948;5.316;2024-02-28T01:36:52;82.00;;;34.50;;
33138;SDS011;19501;50.948;5.316;2024-02-28T01:39:17;91.93;;;34.67;;
33138;SDS011;19501;50.948;5.316;2024-02-28T01:41:53;82.80;;;33.67;;
33138;SDS011;19501;50.948;5.316;2024-02-28T01:44:19;86.82;;;36.20;;
33138;SDS011;19501;50.948;5.316;2024-02-28T01:46:45;81.10;;;34.33;;
33138;SDS011;19501;50.948;5.316;2024-02-28T01:49:11;89.18;;;35.55;;
33138;SDS011;19501;50.948;5.316;2024-02-28T01:51:37;77.95;;;33.58;;
33138;SDS011;19501;50.948;5.316;2024-02-28T01:54:03;86.97;;;34.88;;
33138;SDS011;19501;50.948;5.316;2024-02-28T01:56:31;83.80;;;35.05;;
33138;SDS011;19501;50.948;5.316;2024-02-28T01:58:57;80.90;;;34.80;;
33138;SDS011;19501;50.948;5.316;2024-02-28T02:01:23;77.57;;;33.58;;
33138;SDS011;19501;50.948;5.316;2024-02-28T02:03:49;78.32;;;32.97;;
33138;SDS011;19501;50.948;5.316;2024-02-28T02:06:14;89.55;;;36.08;;
33138;SDS011;19501;50.948;5.316;2024-02-28T02:08:40;83.78;;;35.30;;
33138;SDS011;19501;50.948;5.316;2024-02-28T02:11:06;91.82;;;35.55;;
33138;SDS011;19501;50.948;5.316;2024-02-28T02:13:32;85.68;;;34.72;;
33138;SDS011;19501;50.948;5.316;2024-02-28T02:16:00;82.20;;;33.63;;
33138;SDS011;19501;50.948;5.316;2024-02-28T02:18:26;80.78;;;35.10;;
33138;SDS011;19501;50.948;5.316;2024-02-28T02:20:58;79.30;;;34.05;;
33138;SDS011;19501;50.948;5.316;2024-02-28T02:23:28;82.57;;;33.90;;
33138;SDS011;19501;50.948;5.316;2024-02-28T02:25:55;79.70;;;34.15;;
33138;SDS011;19501;50.948;5.316;2024-02-28T02:28:20;74.97;;;32.15;;
33138;SDS011;19501;50.948;5.316;2024-02-28T02:30:46;77.95;;;32.78;;
33138;SDS011;19501;50.948;5.316;2024-02-28T02:33:12;73.68;;;31.23;;
33138;SDS011;19501;50.948;5.316;2024-02-28T02:35:38;77.90;;;31.83;;
33138;SDS011;19501;50.948;5.316;2024-02-28T02:38:03;71.35;;;31.38;;
33138;SDS011;19501;50.948;5.316;2024-02-28T02:40:29;77.63;;;33.92;;
33138;SDS011;19501;50.948;5.316;2024-02-28T02:42:54;78.95;;;32.35;;
33138;SDS011;19501;50.948;5.316;2024-02-28T02:45:20;77.63;;;32.40;;
33138;SDS011;19501;50.948;5.316;2024-02-28T02:47:46;76.45;;;31.58;;
33138;SDS011;19501;50.948;5.316;2024-02-28T02:50:11;78.22;;;32.08;;
33138;SDS011;19501;50.948;5.316;2024-02-28T02:52:37;73.10;;;33.47;;
33138;SDS011;19501;50.948;5.316;2024-02-28T02:55:03;75.40;;;32.28;;
33138;SDS011;19501;50.948;5.316;2024-02-28T02:57:29;75.65;;;32.03;;
33138;SDS011;19501;50.948;5.316;2024-02-28T02:59:56;74.80;;;31.75;;
33138;SDS011;19501;50.948;5.316;2024-02-28T03:02:24;76.18;;;33.03;;
33138;SDS011;19501;50.948;5.316;2024-02-28T03:04:50;76.82;;;33.20;;
33138;SDS011;19501;50.948;5.316;2024-02-28T03:07:15;74.97;;;30.73;;
33138;SDS011;19501;50.948;5.316;2024-02-28T03:09:41;82.45;;;33.28;;
33138;SDS011;19501;50.948;5.316;2024-02-28T03:12:07;84.70;;;32.33;;
33138;SDS011;19501;50.948;5.316;2024-02-28T03:14:34;82.45;;;34.13;;
33138;SDS011;19501;50.948;5.316;2024-02-28T03:17:00;77.32;;;33.63;;
33138;SDS011;19501;50.948;5.316;2024-02-28T03:19:26;78.22;;;34.90;;
33138;SDS011;19501;50.948;5.316;2024-02-28T03:21:52;111.28;;;36.42;;
33138;SDS011;19501;50.948;5.316;2024-02-28T03:24:18;142.18;;;38.45;;
33138;SDS011;19501;50.948;5.316;2024-02-28T03:26:43;119.75;;;38.05;;
33138;SDS011;19501;50.948;5.316;2024-02-28T03:29:09;109.18;;;34.90;;
33138;SDS011;19501;50.948;5.316;2024-02-28T03:31:35;90.40;;;34.78;;
33138;SDS011;19501;50.948;5.316;2024-02-28T03:34:00;103.68;;;36.15;;
33138;SDS011;19501;50.948;5.316;2024-02-28T03:36:27;91.80;;;39.40;;
33138;SDS011;19501;50.948;5.316;2024-02-28T03:38:58;87.90;;;37.33;;
33138;SDS011;19501;50.948;5.316;2024-02-28T03:41:23;84.75;;;35.03;;
33138;SDS011;19501;50.948;5.316;2024-02-28T03:43:49;80.63;;;35.47;;
33138;SDS011;19501;50.948;5.316;2024-02-28T03:46:15;79.30;;;33.85;;
33138;SDS011;19501;50.948;5.316;2024-02-28T03:48:40;79.03;;;34.22;;
33138;SDS011;19501;50.948;5.316;2024-02-28T03:51:06;76.80;;;32.50;;
33138;SDS011;19501;50.948;5.316;2024-02-28T03:53:32;80.68;;;33.60;;
33138;SDS011;19501;50.948;5.316;2024-02-28T03:55:57;78.68;;;33.47;;
33138;SDS011;19501;50.948;5.316;2024-02-28T03:58:23;82.93;;;34.00;;
33138;SDS011;19501;50.948;5.316;2024-02-28T04:00:49;83.63;;;33.75;;
33138;SDS011;19501;50.948;5.316;2024-02-28T04:03:15;78.22;;;33.38;;
33138;SDS011;19501;50.948;5.316;2024-02-28T04:05:40;81.70;;;32.53;;
33138;SDS011;19501;50.948;5.316;2024-02-28T04:08:07;74.85;;;33.45;;
33138;SDS011;19501;50.948;5.316;2024-02-28T04:10:32;79.43;;;33.85;;
33138;SDS011;19501;50.948;5.316;2024-02-28T04:12:58;81.32;;;33.72;;
33138;SDS011;19501;50.948;5.316;2024-02-28T04:15:24;75.38;;;32.45;;
33138;SDS011;19501;50.948;5.316;2024-02-28T04:17:51;71.00;;;31.77;;
33138;SDS011;19501;50.948;5.316;2024-02-28T04:20:16;79.82;;;32.50;;
33138;SDS011;19501;50.948;5.316;2024-02-28T04:22:42;79.30;;;33.40;;
33138;SDS011;19501;50.948;5.316;2024-02-28T04:25:08;80.28;;;34.00;;
33138;SDS011;19501;50.948;5.316;2024-02-28T04:27:35;85.65;;;34.28;;
33138;SDS011;19501;50.948;5.316;2024-02-28T04:30:01;91.75;;;35.88;;
33138;SDS011;19501;50.948;5.316;2024-02-28T04:32:27;91.20;;;34.90;;
33138;SDS011;19501;50.948;5.316;2024-02-28T04:34:52;86.35;;;35.30;;
33138;SDS011;19501;50.948;5.316;2024-02-28T04:37:18;99.38;;;36.17;;
33138;SDS011;19501;50.948;5.316;2024-02-28T04:39:44;83.85;;;34.95;;
33138;SDS011;19501;50.948;5.316;2024-02-28T04:42:09;85.00;;;34.10;;
33138;SDS011;19501;50.948;5.316;2024-02-28T04:44:35;82.97;;;34.20;;
33138;SDS011;19501;50.948;5.316;2024-02-28T04:47:01;80.63;;;33.08;;
33138;SDS011;19501;50.948;5.316;2024-02-28T04:49:27;79.38;;;35.20;;
33138;SDS011;19501;50.948;5.316;2024-02-28T04:51:53;83.35;;;34.28;;
33138;SDS011;19501;50.948;5.316;2024-02-28T04:54:21;87.18;;;35.20;;
33138;SDS011;19501;50.948;5.316;2024-02-28T04:56:46;83.80;;;32.92;;
33138;SDS011;19501;50.948;5.316;2024-02-28T04:59:12;81.38;;;32.22;;
33138;SDS011;19501;50.948;5.316;2024-02-28T05:01:38;80.82;;;33.28;;
33138;SDS011;19501;50.948;5.316;2024-02-28T05:04:05;79.20;;;32.10;;
33138;SDS011;19501;50.948;5.316;2024-02-28T05:06:31;86.32;;;33.63;;
33138;SDS011;19501;50.948;5.316;2024-02-28T05:08:57;75.07;;;31.17;;
33138;SDS011;19501;50.948;5.316;2024-02-28T05:11:23;69.18;;;30.92;;
33138;SDS011;19501;50.948;5.316;2024-02-28T05:13:48;72.50;;;30.90;;
33138;SDS011;19501;50.948;5.316;2024-02-28T05:16:14;70.72;;;30.77;;
33138;SDS011;19501;50.948;5.316;2024-02-28T05:18:41;76.25;;;29.83;;
33138;SDS011;19501;50.948;5.316;2024-02-28T05:21:06;74.35;;;30.13;;
33138;SDS011;19501;50.948;5.316;2024-02-28T05:23:32;73.15;;;28.88;;
33138;SDS011;19501;50.948;5.316;2024-02-28T05:25:58;63.03;;;28.55;;
33138;SDS011;19501;50.948;5.316;2024-02-28T05:28:28;69.40;;;27.52;;
33138;SDS011;19501;50.948;5.316;2024-02-28T05:31:00;64.18;;;27.23;;
33138;SDS011;19501;50.948;5.316;2024-02-28T05:33:50;64.68;;;27.52;;
33138;SDS011;19501;50.948;5.316;2024-02-28T05:36:23;64.70;;;27.75;;
33138;SDS011;19501;50.948;5.316;2024-02-28T05:38:49;61.72;;;25.42;;
33138;SDS011;19501;50.948;5.316;2024-02-28T05:41:16;68.55;;;28.30;;
33138;SDS011;19501;50.948;5.316;2024-02-28T05:43:42;64.65;;;27.55;;
33138;SDS011;19501;50.948;5.316;2024-02-28T05:46:08;66.25;;;28.52;;
33138;SDS011;19501;50.948;5.316;2024-02-28T05:48:33;69.60;;;26.98;;
33138;SDS011;19501;50.948;5.316;2024-02-28T05:51:02;58.75;;;26.45;;
33138;SDS011;19501;50.948;5.316;2024-02-28T05:53:29;59.30;;;26.42;;
33138;SDS011;19501;50.948;5.316;2024-02-28T05:56:00;63.90;;;26.25;;
33138;SDS011;19501;50.948;5.316;2024-02-28T05:58:26;59.17;;;25.38;;
33138;SDS011;19501;50.948;5.316;2024-02-28T06:00:52;58.15;;;25.90;;
33138;SDS011;19501;50.948;5.316;2024-02-28T06:03:17;59.97;;;25.27;;
33138;SDS011;19501;50.948;5.316;2024-02-28T06:05:43;61.13;;;26.08;;
33138;SDS011;19501;50.948;5.316;2024-02-28T06:08:09;55.97;;;25.42;;
33138;SDS011;19501;50.948;5.316;2024-02-28T06:10:34;60.28;;;25.35;;
33138;SDS011;19501;50.948;5.316;2024-02-28T06:13:00;61.50;;;25.58;;
33138;SDS011;19501;50.948;5.316;2024-02-28T06:15:26;59.50;;;25.85;;
33138;SDS011;19501;50.948;5.316;2024-02-28T06:17:51;57.72;;;24.77;;
33138;SDS011;19501;50.948;5.316;2024-02-28T06:20:17;58.80;;;25.30;;
33138;SDS011;19501;50.948;5.316;2024-02-28T06:22:43;64.38;;;26.48;;
33138;SDS011;19501;50.948;5.316;2024-02-28T06:25:09;63.53;;;26.00;;
33138;SDS011;19501;50.948;5.316;2024-02-28T06:27:45;64.40;;;26.08;;
33138;SDS011;19501;50.948;5.316;2024-02-28T06:30:11;63.40;;;25.02;;
33138;SDS011;19501;50.948;5.316;2024-02-28T06:32:41;58.28;;;25.10;;
33138;SDS011;19501;50.948;5.316;2024-02-28T06:35:08;61.00;;;26.00;;
33138;SDS011;19501;50.948;5.316;2024-02-28T06:37:34;58.97;;;25.95;;
33138;SDS011;19501;50.948;5.316;2024-02-28T06:40:00;63.92;;;26.10;;
33138;SDS011;19501;50.948;5.316;2024-02-28T06:42:26;61.80;;;26.65;;
33138;SDS011;19501;50.948;5.316;2024-02-28T06:44:51;68.30;;;27.77;;
33138;SDS011;19501;50.948;5.316;2024-02-28T06:47:17;70.35;;;29.38;;
33138;SDS011;19501;50.948;5.316;2024-02-28T06:49:43;70.28;;;30.20;;
33138;SDS011;19501;50.948;5.316;2024-02-28T06:52:09;66.95;;;30.88;;
33138;SDS011;19501;50.948;5.316;2024-02-28T06:54:35;68.45;;;30.73;;
33138;SDS011;19501;50.948;5.316;2024-02-28T06:57:00;77.13;;;30.80;;
33138;SDS011;19501;50.948;5.316;2024-02-28T06:59:27;67.50;;;29.35;;
33138;SDS011;19501;50.948;5.316;2024-02-28T07:01:56;71.80;;;30.38;;
33138;SDS011;19501;50.948;5.316;2024-02-28T07:04:22;67.43;;;29.95;;
33138;SDS011;19501;50.948;5.316;2024-02-28T07:06:47;68.25;;;29.13;;
33138;SDS011;19501;50.948;5.316;2024-02-28T07:09:14;67.22;;;29.05;;
33138;SDS011;19501;50.948;5.316;2024-02-28T07:11:40;67.72;;;29.38;;
33138;SDS011;19501;50.948;5.316;2024-02-28T07:14:06;67.43;;;28.98;;
33138;SDS011;19501;50.948;5.316;2024-02-28T07:16:31;66.60;;;28.10;;
33138;SDS011;19501;50.948;5.316;2024-02-28T07:19:01;63.05;;;27.10;;
33138;SDS011;19501;50.948;5.316;2024-02-28T07:21:26;64.63;;;27.98;;
33138;SDS011;19501;50.948;5.316;2024-02-28T07:23:52;60.08;;;26.60;;
33138;SDS011;19501;50.948;5.316;2024-02-28T07:26:19;57.47;;;26.20;;
33138;SDS011;19501;50.948;5.316;2024-02-28T07:28:44;62.47;;;26.73;;
33138;SDS011;19501;50.948;5.316;2024-02-28T07:31:23;62.13;;;26.23;;
33138;SDS011;19501;50.948;5.316;2024-02-28T07:33:49;63.25;;;26.42;;
33138;SDS011;19501;50.948;5.316;2024-02-28T07:36:15;61.00;;;25.25;;
33138;SDS011;19501;50.948;5.316;2024-02-28T07:38:41;71.50;;;28.33;;
33138;SDS011;19501;50.948;5.316;2024-02-28T07:41:07;64.05;;;26.90;;
33138;SDS011;19501;50.948;5.316;2024-02-28T07:43:35;58.22;;;26.00;;
33138;SDS011;19501;50.948;5.316;2024-02-28T07:46:07;64.20;;;27.13;;
33138;SDS011;19501;50.948;5.316;2024-02-28T07:48:33;64.97;;;26.58;;
33138;SDS011;19501;50.948;5.316;2024-02-28T07:50:59;61.78;;;26.90;;
33138;SDS011;19501;50.948;5.316;2024-02-28T07:53:26;64.88;;;25.40;;
33138;SDS011;19501;50.948;5.316;2024-02-28T07:55:51;70.00;;;27.38;;
33138;SDS011;19501;50.948;5.316;2024-02-28T07:58:18;62.33;;;26.58;;
33138;SDS011;19501;50.948;5.316;2024-02-28T08:00:44;67.93;;;25.55;;
33138;SDS011;19501;50.948;5.316;2024-02-28T08:03:12;66.10;;;26.48;;
33138;SDS011;19501;50.948;5.316;2024-02-28T08:05:37;66.22;;;24.38;;
33138;SDS011;19501;50.948;5.316;2024-02-28T08:08:06;71.45;;;25.67;;
33138;SDS011;19501;50.948;5.316;2024-02-28T08:10:31;61.88;;;24.65;;
33138;SDS011;19501;50.948;5.316;2024-02-28T08:12:57;57.90;;;23.65;;
33138;SDS011;19501;50.948;5.316;2024-02-28T08:15:25;57.67;;;23.30;;
33138;SDS011;19501;50.948;5.316;2024-02-28T08:17:51;70.25;;;25.00;;
33138;SDS011;19501;50.948;5.316;2024-02-28T08:20:16;68.97;;;25.13;;
33138;SDS011;19501;50.948;5.316;2024-02-28T08:22:42;67.88;;;24.55;;
33138;SDS011;19501;50.948;5.316;2024-02-28T08:25:08;71.18;;;24.63;;
33138;SDS011;19501;50.948;5.316;2024-02-28T08:27:36;59.53;;;23.48;;
33138;SDS011;19501;50.948;5.316;2024-02-28T08:30:03;63.08;;;23.27;;
33138;SDS011;19501;50.948;5.316;2024-02-28T08:32:30;65.93;;;23.50;;
33138;SDS011;19501;50.948;5.316;2024-02-28T08:34:57;65.75;;;22.15;;
33138;SDS011;19501;50.948;5.316;2024-02-28T08:37:23;63.50;;;22.25;;
33138;SDS011;19501;50.948;5.316;2024-02-28T08:39:49;54.42;;;19.90;;
33138;SDS011;19501;50.948;5.316;2024-02-28T08:42:15;66.15;;;21.25;;
33138;SDS011;19501;50.948;5.316;2024-02-28T08:44:41;56.28;;;20.30;;
33138;SDS011;19501;50.948;5.316;2024-02-28T08:47:06;56.53;;;20.33;;
33138;SDS011;19501;50.948;5.316;2024-02-28T08:49:38;58.80;;;19.95;;
33138;SDS011;19501;50.948;5.316;2024-02-28T08:52:04;62.53;;;20.30;;
33138;SDS011;19501;50.948;5.316;2024-02-28T08:54:32;60.47;;;21.67;;
33138;SDS011;19501;50.948;5.316;2024-02-28T08:56:58;64.10;;;20.63;;
33138;SDS011;19501;50.948;5.316;2024-02-28T08:59:23;61.90;;;20.80;;
33138;SDS011;19501;50.948;5.316;2024-02-28T09:01:50;56.63;;;19.15;;
33138;SDS011;19501;50.948;5.316;2024-02-28T09:04:16;52.08;;;19.52;;
33138;SDS011;19501;50.948;5.316;2024-02-28T09:06:41;50.33;;;17.92;;
33138;SDS011;19501;50.948;5.316;2024-02-28T09:09:12;50.30;;;18.92;;
33138;SDS011;19501;50.948;5.316;2024-02-28T09:11:38;51.83;;;19.30;;
33138;SDS011;19501;50.948;5.316;2024-02-28T09:14:04;53.20;;;18.95;;
33138;SDS011;19501;50.948;5.316;2024-02-28T09:16:32;51.60;;;18.60;;
33138;SDS011;19501;50.948;5.316;2024-02-28T09:19:00;47.83;;;16.80;;
33138;SDS011;19501;50.948;5.316;2024-02-28T09:21:25;54.75;;;19.33;;
33138;SDS011;19501;50.948;5.316;2024-02-28T09:23:51;57.85;;;19.20;;
33138;SDS011;19501;50.948;5.316;2024-02-28T09:26:16;56.45;;;19.58;;
33138;SDS011;19501;50.948;5.316;2024-02-28T09:28:42;51.80;;;19.55;;
33138;SDS011;19501;50.948;5.316;2024-02-28T09:31:08;52.10;;;19.73;;
33138;SDS011;19501;50.948;5.316;2024-02-28T09:33:34;53.80;;;19.58;;
33138;SDS011;19501;50.948;5.316;2024-02-28T09:36:01;50.72;;;18.63;;
33138;SDS011;19501;50.948;5.316;2024-02-28T09:38:28;48.70;;;18.80;;
33138;SDS011;19501;50.948;5.316;2024-02-28T09:40:54;56.60;;;20.67;;
33138;SDS011;19501;50.948;5.316;2024-02-28T09:43:30;51.85;;;20.40;;
33138;SDS011;19501;50.948;5.316;2024-02-28T09:46:01;53.17;;;19.48;;
33138;SDS011;19501;50.948;5.316;2024-02-28T09:48:29;52.75;;;19.08;;
33138;SDS011;19501;50.948;5.316;2024-02-28T09:50:59;53.85;;;19.55;;
33138;SDS011;19501;50.948;5.316;2024-02-28T09:53:26;54.42;;;19.10;;
33138;SDS011;19501;50.948;5.316;2024-02-28T09:55:51;48.67;;;18.85;;
33138;SDS011;19501;50.948;5.316;2024-02-28T09:58:18;50.00;;;20.08;;
33138;SDS011;19501;50.948;5.316;2024-02-28T10:00:47;55.25;;;19.73;;
33138;SDS011;19501;50.948;5.316;2024-02-28T10:03:16;47.70;;;18.35;;
33138;SDS011;19501;50.948;5.316;2024-02-28T10:05:48;41.78;;;15.55;;
33138;SDS011;19501;50.948;5.316;2024-02-28T10:08:14;49.95;;;18.30;;
33138;SDS011;19501;50.948;5.316;2024-02-28T10:10:46;48.45;;;18.27;;
33138;SDS011;19501;50.948;5.316;2024-02-28T10:15:38;49.25;;;17.83;;
33138;SDS011;19501;50.948;5.316;2024-02-28T10:18:04;50.47;;;18.75;;
33138;SDS011;19501;50.948;5.316;2024-02-28T10:20:30;51.22;;;18.75;;
33138;SDS011;19501;50.948;5.316;2024-02-28T10:22:56;48.03;;;16.95;;
33138;SDS011;19501;50.948;5.316;2024-02-28T10:25:22;50.33;;;18.95;;
33138;SDS011;19501;50.948;5.316;2024-02-28T10:27:48;49.05;;;19.08;;
33138;SDS011;19501;50.948;5.316;2024-02-28T10:30:16;47.78;;;19.02;;
33138;SDS011;19501;50.948;5.316;2024-02-28T10:32:50;51.88;;;18.98;;
33138;SDS011;19501;50.948;5.316;2024-02-28T10:35:19;51.67;;;19.23;;
33138;SDS011;19501;50.948;5.316;2024-02-28T10:37:45;53.08;;;20.63;;
33138;SDS011;19501;50.948;5.316;2024-02-28T10:40:12;52.03;;;18.77;;
33138;SDS011;19501;50.948;5.316;2024-02-28T10:42:41;43.45;;;18.00;;
33138;SDS011;19501;50.948;5.316;2024-02-28T10:45:09;45.63;;;17.63;;
33138;SDS011;19501;50.948;5.316;2024-02-28T10:47:37;51.25;;;18.60;;
33138;SDS011;19501;50.948;5.316;2024-02-28T10:50:04;52.60;;;17.58;;
33138;SDS011;19501;50.948;5.316;2024-02-28T10:52:30;48.20;;;19.20;;
33138;SDS011;19501;50.948;5.316;2024-02-28T10:54:58;48.00;;;17.88;;
33138;SDS011;19501;50.948;5.316;2024-02-28T10:57:27;54.22;;;18.25;;
33138;SDS011;19501;50.948;5.316;2024-02-28T10:59:54;48.38;;;18.83;;
33138;SDS011;19501;50.948;5.316;2024-02-28T11:02:22;46.78;;;18.65;;
33138;SDS011;19501;50.948;5.316;2024-02-28T11:04:53;46.58;;;17.75;;
33138;SDS011;19501;50.948;5.316;2024-02-28T11:07:19;43.47;;;17.98;;
33138;SDS011;19501;50.948;5.316;2024-02-28T11:09:46;46.58;;;17.13;;
33138;SDS011;19501;50.948;5.316;2024-02-28T11:12:27;42.80;;;16.88;;
33138;SDS011;19501;50.948;5.316;2024-02-28T11:14:57;41.80;;;16.73;;
33138;SDS011;19501;50.948;5.316;2024-02-28T11:17:27;46.25;;;18.10;;
33138;SDS011;19501;50.948;5.316;2024-02-28T11:19:57;45.15;;;17.27;;
33138;SDS011;19501;50.948;5.316;2024-02-28T11:22:22;52.10;;;20.67;;
33138;SDS011;19501;50.948;5.316;2024-02-28T11:24:48;49.42;;;21.75;;
33138;SDS011;19501;50.948;5.316;2024-02-28T11:27:18;53.58;;;20.42;;
33138;SDS011;19501;50.948;5.316;2024-02-28T11:29:44;49.60;;;20.17;;
33138;SDS011;19501;50.948;5.316;2024-02-28T11:32:12;46.67;;;19.73;;
33138;SDS011;19501;50.948;5.316;2024-02-28T11:34:38;49.03;;;17.60;;
33138;SDS011;19501;50.948;5.316;2024-02-28T11:37:05;41.88;;;17.20;;
33138;SDS011;19501;50.948;5.316;2024-02-28T11:39:33;43.35;;;17.42;;
33138;SDS011;19501;50.948;5.316;2024-02-28T11:42:12;40.65;;;16.30;;
33138;SDS011;19501;50.948;5.316;2024-02-28T11:44:39;38.83;;;16.58;;
33138;SDS011;19501;50.948;5.316;2024-02-28T11:47:05;39.72;;;16.63;;
33138;SDS011;19501;50.948;5.316;2024-02-28T11:49:34;37.13;;;15.57;;
33138;SDS011;19501;50.948;5.316;2024-02-28T11:52:00;38.35;;;15.68;;
33138;SDS011;19501;50.948;5.316;2024-02-28T11:54:25;37.65;;;15.10;;
33138;SDS011;19501;50.948;5.316;2024-02-28T11:56:51;32.25;;;13.75;;
33138;SDS011;19501;50.948;5.316;2024-02-28T11:59:17;37.03;;;15.13;;
33138;SDS011;19501;50.948;5.316;2024-02-28T12:01:43;34.92;;;14.32;;
33138;SDS011;19501;50.948;5.316;2024-02-28T12:04:09;36.30;;;13.07;;
33138;SDS011;19501;50.948;5.316;2024-02-28T12:06:36;35.20;;;13.32;;
33138;SDS011;19501;50.948;5.316;2024-02-28T12:09:03;35.38;;;13.68;;
33138;SDS011;19501;50.948;5.316;2024-02-28T12:11:32;37.92;;;14.27;;
33138;SDS011;19501;50.948;5.316;2024-02-28T12:13:58;38.00;;;13.20;;
33138;SDS011;19501;50.948;5.316;2024-02-28T12:16:25;32.80;;;12.65;;
33138;SDS011;19501;50.948;5.316;2024-02-28T12:18:51;34.05;;;12.82;;
33138;SDS011;19501;50.948;5.316;2024-02-28T12:21:17;34.78;;;12.07;;
33138;SDS011;19501;50.948;5.316;2024-02-28T12:23:43;30.48;;;11.23;;
33138;SDS011;19501;50.948;5.316;2024-02-28T12:26:09;29.52;;;11.65;;
33138;SDS011;19501;50.948;5.316;2024-02-28T12:28:35;34.03;;;13.68;;
33138;SDS011;19501;50.948;5.316;2024-02-28T12:31:00;35.05;;;11.68;;
33138;SDS011;19501;50.948;5.316;2024-02-28T12:33:26;28.55;;;11.88;;
33138;SDS011;19501;50.948;5.316;2024-02-28T12:35:52;30.40;;;11.27;;
33138;SDS011;19501;50.948;5.316;2024-02-28T12:38:17;32.80;;;11.48;;
33138;SDS011;19501;50.948;5.316;2024-02-28T12:40:44;30.23;;;10.13;;
33138;SDS011;19501;50.948;5.316;2024-02-28T12:43:13;27.90;;;10.75;;
33138;SDS011;19501;50.948;5.316;2024-02-28T12:45:39;27.10;;;10.38;;
33138;SDS011;19501;50.948;5.316;2024-02-28T12:48:05;27.13;;;8.73;;
33138;SDS011;19501;50.948;5.316;2024-02-28T12:50:31;24.98;;;8.88;;
33138;SDS011;19501;50.948;5.316;2024-02-28T12:52:58;25.30;;;9.55;;
33138;SDS011;19501;50.948;5.316;2024-02-28T12:55:25;23.35;;;8.23;;
33138;SDS011;19501;50.948;5.316;2024-02-28T12:57:51;18.63;;;6.47;;
33138;SDS011;19501;50.948;5.316;2024-02-28T13:00:16;18.98;;;6.82;;
33138;SDS011;19501;50.948;5.316;2024-02-28T13:02:42;23.90;;;7.80;;
33138;SDS011;19501;50.948;5.316;2024-02-28T13:05:09;21.52;;;6.75;;
33138;SDS011;19501;50.948;5.316;2024-02-28T13:07:36;21.80;;;7.35;;
33138;SDS011;19501;50.948;5.316;2024-02-28T13:10:02;20.67;;;6.32;;
33138;SDS011;19501;50.948;5.316;2024-02-28T13:12:30;16.52;;;5.93;;
33138;SDS011;19501;50.948;5.316;2024-02-28T13:14:57;18.00;;;6.07;;
33138;SDS011;19501;50.948;5.316;2024-02-28T13:17:23;17.33;;;5.47;;
33138;SDS011;19501;50.948;5.316;2024-02-28T13:19:49;20.38;;;5.93;;
33138;SDS011;19501;50.948;5.316;2024-02-28T13:22:16;16.73;;;5.40;;
33138;SDS011;19501;50.948;5.316;2024-02-28T13:24:41;17.02;;;6.10;;
33138;SDS011;19501;50.948;5.316;2024-02-28T13:27:07;18.02;;;4.95;;
33138;SDS011;19501;50.948;5.316;2024-02-28T13:29:34;16.00;;;5.18;;
33138;SDS011;19501;50.948;5.316;2024-02-28T13:32:00;22.38;;;6.80;;
33138;SDS011;19501;50.948;5.316;2024-02-28T13:34:26;20.98;;;6.35;;
33138;SDS011;19501;50.948;5.316;2024-02-28T13:36:52;17.52;;;5.25;;
33138;SDS011;19501;50.948;5.316;2024-02-28T13:39:18;19.02;;;5.95;;
33138;SDS011;19501;50.948;5.316;2024-02-28T13:41:43;16.02;;;5.57;;
33138;SDS011;19501;50.948;5.316;2024-02-28T13:44:10;15.82;;;5.13;;
33138;SDS011;19501;50.948;5.316;2024-02-28T13:46:35;14.85;;;4.32;;
33138;SDS011;19501;50.948;5.316;2024-02-28T13:49:02;14.27;;;4.55;;
33138;SDS011;19501;50.948;5.316;2024-02-28T13:51:29;10.07;;;3.65;;
33138;SDS011;19501;50.948;5.316;2024-02-28T13:53:55;10.10;;;3.97;;
33138;SDS011;19501;50.948;5.316;2024-02-28T13:56:20;14.85;;;3.97;;
33138;SDS011;19501;50.948;5.316;2024-02-28T13:58:46;14.10;;;4.05;;
33138;SDS011;19501;50.948;5.316;2024-02-28T14:01:12;15.90;;;4.63;;
33138;SDS011;19501;50.948;5.316;2024-02-28T14:03:38;12.98;;;4.22;;
33138;SDS011;19501;50.948;5.316;2024-02-28T14:06:04;11.27;;;4.00;;
33138;SDS011;19501;50.948;5.316;2024-02-28T14:08:32;15.60;;;4.35;;
33138;SDS011;19501;50.948;5.316;2024-02-28T14:10:58;11.73;;;3.95;;
33138;SDS011;19501;50.948;5.316;2024-02-28T14:13:24;13.85;;;3.88;;
33138;SDS011;19501;50.948;5.316;2024-02-28T14:15:50;8.93;;;3.88;;
33138;SDS011;19501;50.948;5.316;2024-02-28T14:18:16;10.40;;;3.90;;
33138;SDS011;19501;50.948;5.316;2024-02-28T14:20:42;12.63;;;4.55;;
33138;SDS011;19501;50.948;5.316;2024-02-28T14:23:08;10.82;;;3.60;;